Hauptseite
METAR-TAF:

METAR-TAF

Flughäfen :

Moskau-Scheremetjewo, Russland

Flughafen Moskau-Scheremetjewo

Breite: 55-59N, Länge: 037-30E, Höhe: 190 m

Beobachtung

Neuester Wetterbericht von vor 19 Minuten, um 21:30 UTC
Wind 4 kt aus Nord
Temperatur -18°C
Luftfeuchtigkeit 84%
Luftdruck 1024 hPa
Sichtweite: 9000 m
Schnee leicht

METAR: UUEE 252130Z 36002MPS 9000 -SN NSC M18/M20 Q1024 R06L/410340 NOSIG

Zeit: 00:49 (21:49 UTC)

Prognose

Neuester Wetterbericht von vor 1 Stunde und 58 Minuten, um 19:51 UTC
Gültige Prognose vom 25 um 21 UTC bis 26 um 21 UTC
Wind 6 kt aus Nord
Sichtweite 10 km oder mehr
Durchbrochene Bewölkung in der Höhe von 1100 ft
Zeitweise
vom 25 um 21 UTC bis 26 um 12 UTC
Sichtweite: 3100 m
Aufgelockert bewölkt in der Höhe von 300 ft
Schnee leicht, feuchter Dunst

TAF: UUEE 251951Z 2521/2621 36003MPS 9999 BKN011 TXM14/2613Z TNM23/2603Z TEMPO 2521/2612 3100 -SN BR SCT003

Wetterbeobachtungen und Prognosen von mehr als 4000 Flughäfen (METAR und TAF Bericht).

Die verfügbaren Stationen werden durch gelbe und rote Markierungen auf der Karte dargestellt.

Führen Sie die Maus auf sie, um den Namen der Station zu sehen.

Darauf klicken, um die Beobachtung von Wetterbeobachtungen und Prognosen zu sehen.

Um die Karte zu ändern : klicken Sie auf den grünen Tasten mit einem schwarzen Kreuz Zum Vergrößern, auf den grünen Button mit einem Gedankenstrich zu verkleinern, oder auf die grünen Pfeile für benachbarte Karten.


METAR-TAF: